Lingen, Germany

1:17 AM CEST on July 26, 2016 (GMT +0200)
Marienschule Lingen | | Change Station

Elev 82 ft 52.53 °N, 7.32 °E | Updated 1 minute ago

Clear
Clear
63.5 °F
Feels Like 63.5 °F
N
0.0
Wind Variable Wind from WSW
Gusts 1.0 mph

Today
High -- | Low -- °F
--% Chance of Precip.
Yesterday
High -- | Low -- °F
Precip. -- in
Pressure 30.12 in
Visibility -9999.0 miles
Clouds
Dew Point 59 °F
Humidity 86%
Rainfall 0.00 in
Snow Depth Not available.
5:41 AM 9:31 PM
Waning Gibbous, 61% visible
METAR EDDG 252250Z 00000KT CAVOK 17/16 Q1020 NOSIG
Pressure 30.12 in
Visibility -9999.0 miles
Clouds
Dew Point 59 °F
Humidity 86%
Rainfall 0.00 in
Snow Depth Not available.
5:41 AM 9:31 PM
Waning Gibbous, 61% visible
METAR EDDG 252250Z 00000KT CAVOK 17/16 Q1020 NOSIG

10-Day Weather Forecast

×

Almanac

Astronomy

Jul. 26, 2016 Rise Set
Actual Time
Civil Twilight
Nautical Twilight
Astronomical Twilight
Moon
Length of Visible Light
Length of Day
Tomorrow will be .
, % of the Moon is Illuminated

Today's Extremes

Country Highs Country Lows

Community

WunderPhotos

Upload Photos

1,927,441 photos uploaded!

WunderBlog® & News

Nearby

Air Quality

  Air Quality AQ Index Pollutant
Not available.

Snow Depth

Station Depth Elevation

Earthquake Activity

City Distance Mag. Time & Date
Minimum magnitude displayed is 2.5.

Coastal Water Temperatures

Place Temperature

Stations

Nearby Weather Stations

Station Location Temp. Windchill Dew Point Humidity Wind Precip. Elev Updated Type